Time;durP1;ratioP1;P1;durP2;ratioP2;P2;SDS_P1;SDS_P2;PMS_P1;PMS_P2;Temp;Humidity;BMP_temperature;BMP_pressure;BME280_temperature;BME280_humidity;BME280_pressure;Samples;Min_cycle;Max_cycle;Signal;HPM_P1;HPM_P2
2023/01/21 00:01:30;;;;;;;40.80;21.13;;;-0.30;99.90;;;;;;10450359;28;20301;-87
2023/01/21 00:06:32;;;;;;;29.57;14.93;;;-0.60;99.90;;;;;;10450916;28;20235;-87
2023/01/21 00:11:35;;;;;;;37.80;21.37;;;-0.40;99.90;;;;;;10452842;28;20246;-87
2023/01/21 00:16:38;;;;;;;34.33;17.83;;;-0.60;99.90;;;;;;10470212;28;20261;-87
2023/01/21 00:21:40;;;;;;;36.50;19.33;;;-0.60;99.90;;;;;;10427712;28;20238;-87
2023/01/21 00:26:43;;;;;;;39.10;19.43;;;-0.70;99.90;;;;;;10473699;28;20283;-87
2023/01/21 00:31:46;;;;;;;38.87;19.60;;;-0.80;99.90;;;;;;10465804;28;20269;-86
2023/01/21 00:36:49;;;;;;;38.33;20.50;;;-0.50;99.90;;;;;;10450427;28;20244;-88
2023/01/21 00:41:51;;;;;;;42.00;18.00;;;-1.00;99.90;;;;;;10463540;28;20285;-87
2023/01/21 00:46:54;;;;;;;37.43;20.13;;;-0.90;99.90;;;;;;10457740;28;20247;-88
2023/01/21 00:51:56;;;;;;;32.53;18.13;;;-0.90;99.90;;;;;;10491294;28;20285;-89
2023/01/21 00:56:59;;;;;;;28.73;15.47;;;-0.90;99.90;;;;;;10427926;28;20236;-88
2023/01/21 01:02:02;;;;;;;35.27;18.90;;;-0.90;99.90;;;;;;10432402;28;20785;-88
2023/01/21 01:07:05;;;;;;;36.57;18.43;;;-0.80;99.90;;;;;;10451419;28;20643;-88
2023/01/21 01:12:07;;;;;;;36.73;19.23;;;-0.80;99.90;;;;;;10450570;28;20255;-88
2023/01/21 01:17:10;;;;;;;39.70;18.70;;;-0.70;99.90;;;;;;10451131;28;20316;-89
2023/01/21 01:22:13;;;;;;;35.00;17.77;;;-0.30;99.90;;;;;;10467355;28;20237;-89
2023/01/21 01:27:15;;;;;;;41.77;19.33;;;-0.60;99.90;;;;;;10469166;28;20229;-89
2023/01/21 01:32:18;;;;;;;37.07;18.17;;;-0.60;99.90;;;;;;10451412;28;20257;-89
2023/01/21 01:37:21;;;;;;;29.13;15.40;;;-0.60;99.90;;;;;;10450396;28;20273;-90
2023/01/21 01:42:23;;;;;;;41.30;23.10;;;-0.10;99.90;;;;;;10460436;28;20238;-89
2023/01/21 01:47:49;;;;;;;36.50;19.23;;;-0.40;99.90;;;;;;10473752;28;20323;-89
2023/01/21 01:52:53;;;;;;;38.13;21.13;;;-0.50;99.90;;;;;;10471317;28;20253;-89
2023/01/21 01:57:57;;;;;;;34.33;17.30;;;-0.30;99.90;;;;;;10463480;28;20229;-89
2023/01/21 02:08:22;;;;;;;34.80;18.67;;;-0.10;99.90;;;;;;10449146;28;20292;-90
2023/01/21 02:13:27;;;;;;;36.93;19.20;;;-0.30;99.90;;;;;;10449467;28;20620;-90
2023/01/21 02:18:51;;;;;;;40.87;20.77;;;-0.40;99.90;;;;;;10463245;28;20261;-90
2023/01/21 02:23:59;;;;;;;41.13;19.30;;;-0.10;99.90;;;;;;10497812;28;20624;-89
2023/01/21 02:29:17;;;;;;;30.57;16.30;;;-0.20;99.90;;;;;;10445369;28;20253;-89
2023/01/21 02:34:31;;;;;;;22.90;11.93;;;0.00;99.90;;;;;;10481418;28;20288;-89
2023/01/21 02:39:39;;;;;;;34.37;18.47;;;-0.20;99.90;;;;;;10462602;28;20263;-89
2023/01/21 02:44:49;;;;;;;28.60;14.57;;;-0.10;99.90;;;;;;10462544;28;20245;-89
2023/01/21 02:50:27;;;;;;;29.37;16.40;;;-0.10;99.90;;;;;;10462236;28;20311;-89
2023/01/21 02:55:34;;;;;;;32.17;18.43;;;0.00;99.90;;;;;;10461955;28;20296;-89
2023/01/21 03:01:04;;;;;;;29.30;16.57;;;0.00;99.90;;;;;;10444213;28;20295;-89
2023/01/21 03:06:18;;;;;;;28.33;14.20;;;0.00;99.90;;;;;;10462643;28;20288;-89
2023/01/21 03:11:22;;;;;;;35.20;16.80;;;0.00;99.90;;;;;;10503577;28;20283;-89
2023/01/21 03:21:52;;;;;;;28.67;14.73;;;0.20;99.90;;;;;;10492811;28;20280;-89
2023/01/21 03:26:58;;;;;;;26.33;13.47;;;0.40;99.90;;;;;;10460160;28;20243;-90
2023/01/21 03:32:05;;;;;;;25.67;14.37;;;0.20;99.90;;;;;;10476875;28;20318;-89
2023/01/21 03:37:13;;;;;;;19.13;10.90;;;0.00;99.90;;;;;;10455444;28;20230;-89
2023/01/21 03:42:16;;;;;;;31.27;15.40;;;0.40;99.90;;;;;;10470459;28;20257;-90
2023/01/21 03:47:25;;;;;;;27.17;14.97;;;1.20;99.90;;;;;;10454814;28;20288;-89
2023/01/21 03:52:28;;;;;;;21.73;13.73;;;0.60;99.90;;;;;;10436857;28;20270;-89
2023/01/21 03:57:30;;;;;;;25.90;14.80;;;0.60;99.90;;;;;;10454013;28;20277;-90
2023/01/21 04:02:33;;;;;;;22.50;11.83;;;0.40;99.90;;;;;;10453855;28;20238;-89
2023/01/21 04:07:36;;;;;;;26.70;15.33;;;0.30;99.90;;;;;;10452912;28;20245;-90
2023/01/21 04:12:39;;;;;;;22.23;15.10;;;0.20;99.90;;;;;;10461114;28;20919;-89
2023/01/21 04:17:41;;;;;;;10.10;6.07;;;0.50;99.90;;;;;;10459655;28;20255;-90
2023/01/21 04:22:44;;;;;;;19.43;12.03;;;0.90;99.90;;;;;;10453304;28;20769;-89
2023/01/21 04:27:47;;;;;;;15.50;10.70;;;1.00;99.90;;;;;;10452996;28;20226;-89
2023/01/21 04:32:49;;;;;;;19.13;9.80;;;0.60;99.90;;;;;;10472268;28;20292;-89
2023/01/21 04:37:52;;;;;;;20.03;11.50;;;0.50;99.90;;;;;;10460710;28;20229;-90
2023/01/21 04:42:54;;;;;;;23.37;14.27;;;0.40;99.90;;;;;;10452086;28;20650;-89
2023/01/21 04:47:57;;;;;;;22.53;13.80;;;0.90;99.90;;;;;;10455974;28;20241;-89
2023/01/21 04:53:00;;;;;;;23.57;13.43;;;0.50;99.90;;;;;;10493257;28;20314;-89
2023/01/21 04:58:02;;;;;;;23.40;13.83;;;0.40;99.90;;;;;;10474732;28;20692;-89
2023/01/21 05:03:05;;;;;;;22.90;12.40;;;0.30;99.90;;;;;;10486620;28;20244;-89
2023/01/21 05:08:07;;;;;;;18.07;11.03;;;0.30;99.90;;;;;;10451304;28;20284;-89
2023/01/21 05:13:10;;;;;;;22.73;12.50;;;0.40;99.90;;;;;;10451196;28;20253;-88
2023/01/21 05:18:13;;;;;;;22.47;12.17;;;0.40;99.90;;;;;;10450950;28;20651;-89
2023/01/21 05:23:15;;;;;;;22.53;12.77;;;0.40;99.90;;;;;;10449894;28;20244;-88
2023/01/21 05:28:18;;;;;;;19.20;11.17;;;0.40;99.90;;;;;;10450529;28;20233;-89
2023/01/21 05:33:25;;;;;;;20.50;12.67;;;0.40;99.90;;;;;;10450785;28;20272;-89
2023/01/21 05:38:28;;;;;;;23.40;11.87;;;0.90;99.90;;;;;;10467151;28;20232;-88
2023/01/21 05:43:31;;;;;;;18.50;11.93;;;0.60;99.90;;;;;;10447698;28;20302;-88
2023/01/21 05:48:33;;;;;;;17.27;9.60;;;0.50;99.90;;;;;;10449656;28;20255;-89
2023/01/21 05:53:36;;;;;;;17.83;11.50;;;0.50;99.90;;;;;;10449984;28;20253;-89
2023/01/21 05:58:38;;;;;;;18.77;11.57;;;0.80;99.90;;;;;;10448880;28;20263;-89
2023/01/21 06:03:41;;;;;;;21.93;11.90;;;0.70;99.90;;;;;;10431922;28;20267;-88
2023/01/21 06:08:44;;;;;;;16.57;10.50;;;0.70;99.90;;;;;;10449590;28;20691;-89
2023/01/21 06:13:46;;;;;;;14.30;8.80;;;0.70;99.90;;;;;;10456042;28;20312;-88
2023/01/21 06:18:49;;;;;;;8.77;5.43;;;0.60;99.90;;;;;;10454094;28;20234;-88
2023/01/21 06:23:51;;;;;;;15.80;11.20;;;0.80;99.90;;;;;;10449286;28;20805;-88
2023/01/21 06:28:55;;;;;;;13.30;7.03;;;1.00;99.90;;;;;;10430224;28;20780;-87
2023/01/21 06:33:58;;;;;;;14.23;8.40;;;0.90;99.90;;;;;;10448512;28;20688;-88
2023/01/21 06:39:01;;;;;;;13.13;8.20;;;1.00;99.90;;;;;;10448404;28;20229;-87
2023/01/21 06:44:04;;;;;;;12.63;7.30;;;1.00;99.90;;;;;;10447812;28;20261;-88
2023/01/21 06:49:06;;;;;;;12.47;8.20;;;1.10;99.90;;;;;;10486769;28;20814;-88
2023/01/21 06:54:10;;;;;;;13.83;7.60;;;1.20;99.90;;;;;;10441952;28;20654;-87
2023/01/21 06:59:12;;;;;;;15.07;8.57;;;1.10;99.90;;;;;;10447880;28;20230;-88
2023/01/21 07:04:15;;;;;;;11.80;7.23;;;1.20;99.90;;;;;;10447383;28;20241;-88
2023/01/21 07:09:18;;;;;;;9.30;4.70;;;1.40;99.90;;;;;;10449541;28;20276;-88
2023/01/21 07:14:21;;;;;;;10.50;7.37;;;1.40;99.90;;;;;;10436946;28;20251;-87
2023/01/21 07:19:23;;;;;;;11.13;7.10;;;1.60;99.90;;;;;;10455285;28;20234;-87
2023/01/21 07:24:26;;;;;;;7.83;5.80;;;1.40;99.90;;;;;;10455439;28;20241;-87
2023/01/21 07:29:28;;;;;;;20.63;6.77;;;1.30;99.90;;;;;;10455555;28;20287;-87
2023/01/21 07:34:31;;;;;;;9.17;5.50;;;1.30;99.90;;;;;;10456321;28;20257;-87
2023/01/21 07:39:34;;;;;;;9.33;5.57;;;1.40;99.90;;;;;;10496216;28;20646;-87
2023/01/21 07:44:36;;;;;;;16.10;6.40;;;1.30;99.90;;;;;;10473203;28;20251;-86
2023/01/21 07:49:39;;;;;;;7.00;4.70;;;1.40;99.90;;;;;;10437293;28;20238;-87
2023/01/21 07:54:42;;;;;;;8.57;4.37;;;1.30;99.90;;;;;;10454557;28;20694;-86
2023/01/21 07:59:45;;;;;;;8.73;6.10;;;1.30;99.90;;;;;;10453476;28;20233;-86
2023/01/21 08:04:47;;;;;;;9.40;5.63;;;1.40;99.90;;;;;;10453546;28;20238;-87
2023/01/21 08:09:50;;;;;;;8.33;4.87;;;1.40;99.90;;;;;;10453430;28;20634;-86
2023/01/21 08:14:52;;;;;;;6.43;4.73;;;1.20;99.90;;;;;;10451706;28;20646;-87
2023/01/21 08:19:56;;;;;;;7.87;5.27;;;1.30;99.90;;;;;;10452214;28;20295;-87
2023/01/21 08:24:58;;;;;;;12.33;5.90;;;1.20;99.90;;;;;;10451454;28;20226;-87
2023/01/21 08:30:01;;;;;;;11.23;6.93;;;1.20;99.90;;;;;;10451529;28;20227;-87
2023/01/21 08:35:04;;;;;;;9.77;5.23;;;1.10;99.90;;;;;;10448611;28;20589;-88
2023/01/21 08:40:07;;;;;;;6.47;4.07;;;1.20;99.90;;;;;;10449222;28;20291;-87
2023/01/21 08:45:10;;;;;;;5.70;4.00;;;1.50;99.90;;;;;;10452375;28;20214;-87
2023/01/21 08:50:15;;;;;;;9.53;5.10;;;1.30;99.90;;;;;;10450905;28;20288;-87
2023/01/21 08:55:18;;;;;;;6.67;5.03;;;1.10;99.90;;;;;;10437094;28;20226;-87
2023/01/21 09:00:22;;;;;;;6.23;4.30;;;1.10;99.90;;;;;;10451838;28;20230;-87
2023/01/21 09:05:25;;;;;;;6.10;3.63;;;1.10;99.90;;;;;;10447447;28;20290;-87
2023/01/21 09:15:48;;;;;;;11.20;5.50;;;0.90;99.90;;;;;;10450248;28;20621;-88
2023/01/21 09:20:51;;;;;;;9.00;5.03;;;1.20;99.90;;;;;;10452268;28;20287;-87
2023/01/21 09:26:05;;;;;;;12.83;5.13;;;1.00;99.90;;;;;;10451094;28;20295;-88
2023/01/21 09:31:12;;;;;;;18.97;5.13;;;1.50;99.90;;;;;;10447789;28;20246;-88
2023/01/21 09:36:18;;;;;;;11.03;4.20;;;1.00;99.90;;;;;;10450487;28;20222;-88
2023/01/21 09:41:39;;;;;;;7.00;4.00;;;1.20;99.90;;;;;;10450151;28;20237;-88
2023/01/21 09:47:46;;;;;;;11.60;4.83;;;0.90;99.90;;;;;;10449489;28;20295;-88
2023/01/21 09:52:58;;;;;;;7.83;5.17;;;0.90;99.90;;;;;;10263871;28;20308;-88
2023/01/21 09:58:01;;;;;;;13.40;6.30;;;1.10;99.90;;;;;;10266046;28;20735;-89
2023/01/21 10:03:03;;;;;;;7.63;4.77;;;1.10;99.90;;;;;;10260930;28;20280;-88
2023/01/21 10:08:17;;;;;;;10.47;5.00;;;1.00;99.90;;;;;;10277578;28;20248;-88
2023/01/21 10:13:41;;;;;;;5.33;3.43;;;0.90;99.90;;;;;;10281501;28;20295;-90
2023/01/21 10:18:47;;;;;;;5.33;3.47;;;0.90;99.90;;;;;;10281489;28;20236;-90
2023/01/21 10:23:59;;;;;;;4.13;3.33;;;0.90;99.90;;;;;;10296521;28;20257;-90
2023/01/21 10:29:03;;;;;;;5.53;3.77;;;0.90;99.90;;;;;;10467041;28;20756;-90
2023/01/21 10:34:13;;;;;;;4.57;2.60;;;1.30;99.90;;;;;;10471815;28;20284;-91
2023/01/21 10:39:33;;;;;;;5.53;2.77;;;1.10;99.90;;;;;;10463013;28;20756;-91
2023/01/21 10:45:13;;;;;;;5.30;3.27;;;1.20;99.90;;;;;;10455198;28;20238;-88
2023/01/21 10:50:43;;;;;;;3.40;2.47;;;1.20;99.90;;;;;;10445247;28;20238;-89
2023/01/21 10:55:57;;;;;;;3.43;3.10;;;1.50;99.90;;;;;;10484913;28;20625;-89
2023/01/21 11:01:05;;;;;;;3.33;2.07;;;1.50;99.90;;;;;;10493615;28;20298;-91
2023/01/21 11:06:12;;;;;;;3.50;1.87;;;1.50;99.90;;;;;;10463674;28;20230;-89
2023/01/21 11:11:25;;;;;;;3.03;2.23;;;1.30;99.90;;;;;;10476104;28;20303;-89
2023/01/21 11:16:44;;;;;;;7.73;2.63;;;1.20;99.90;;;;;;10466671;28;20726;-90
2023/01/21 11:21:59;;;;;;;2.73;2.20;;;1.00;99.90;;;;;;10456255;28;20294;-90
2023/01/21 11:27:02;;;;;;;2.47;1.87;;;0.90;99.90;;;;;;10462059;28;20237;-89
2023/01/21 11:32:17;;;;;;;3.07;1.47;;;1.20;99.90;;;;;;10495993;28;20262;-89
2023/01/21 11:37:25;;;;;;;2.60;1.90;;;1.30;99.90;;;;;;10496571;28;20303;-89
2023/01/21 11:42:27;;;;;;;2.23;1.70;;;1.20;99.90;;;;;;10464500;28;20238;-90
2023/01/21 11:47:52;;;;;;;2.10;1.47;;;1.00;99.90;;;;;;10456308;28;20238;-94
2023/01/21 11:53:07;;;;;;;3.07;1.83;;;1.20;99.90;;;;;;10449286;28;20311;-93
2023/01/21 11:58:22;;;;;;;1.97;1.67;;;0.90;99.90;;;;;;10450111;28;20234;-91
2023/01/21 12:03:32;;;;;;;3.67;2.00;;;1.10;99.90;;;;;;10454110;28;20646;-94
2023/01/21 12:08:37;;;;;;;1.70;1.40;;;1.00;99.90;;;;;;10444732;28;20669;-92
2023/01/21 12:13:45;;;;;;;2.23;1.67;;;0.90;99.90;;;;;;10451780;28;20730;-93
2023/01/21 12:19:01;;;;;;;2.40;1.50;;;1.00;99.90;;;;;;10434085;28;20243;-92
2023/01/21 12:25:01;;;;;;;2.93;2.57;;;1.00;99.90;;;;;;10469774;28;20209;-91
2023/01/21 12:30:14;;;;;;;2.10;1.90;;;1.10;99.90;;;;;;10326723;28;20235;-90
2023/01/21 12:35:36;;;;;;;2.70;2.50;;;0.80;99.90;;;;;;10321865;28;20288;-89
2023/01/21 12:40:45;;;;;;;2.63;2.33;;;0.70;99.90;;;;;;10322508;28;20279;-90
2023/01/21 12:46:14;;;;;;;2.37;1.37;;;0.80;99.90;;;;;;10323956;28;20287;-89
2023/01/21 12:51:26;;;;;;;2.37;1.20;;;2.00;99.90;;;;;;10316256;28;20294;-89
2023/01/21 12:56:38;;;;;;;2.27;1.40;;;1.80;99.90;;;;;;10324231;28;20243;-90
2023/01/21 13:01:52;;;;;;;2.13;1.50;;;1.50;99.90;;;;;;10448706;28;20625;-89
2023/01/21 13:07:01;;;;;;;2.53;1.37;;;1.30;99.90;;;;;;10448484;28;20238;-90
2023/01/21 13:12:16;;;;;;;1.73;1.20;;;1.50;99.90;;;;;;10450894;28;20689;-89
2023/01/21 13:17:22;;;;;;;2.37;1.80;;;1.20;99.90;;;;;;10452470;28;20226;-88
2023/01/21 13:23:03;;;;;;;3.37;1.90;;;1.10;99.90;;;;;;10452412;28;20203;-90
2023/01/21 13:28:20;;;;;;;1.80;1.27;;;1.70;99.90;;;;;;10437616;28;20252;-90
2023/01/21 13:33:34;;;;;;;1.97;1.53;;;1.70;99.90;;;;;;10447944;28;20253;-90
2023/01/21 13:39:29;;;;;;;1.37;1.13;;;1.50;99.90;;;;;;10440899;28;20629;-89
2023/01/21 13:44:43;;;;;;;1.83;1.50;;;1.60;99.90;;;;;;10161310;29;20239;-89
2023/01/21 13:49:49;;;;;;;1.43;1.17;;;1.40;99.90;;;;;;10161137;29;20639;-89
2023/01/21 13:55:11;;;;;;;2.83;1.60;;;1.30;99.90;;;;;;10163495;29;20310;-89
2023/01/21 14:00:14;;;;;;;2.23;1.40;;;1.30;99.90;;;;;;10161214;29;20232;-89
2023/01/21 14:05:33;;;;;;;2.97;2.30;;;1.20;99.90;;;;;;10160894;29;20263;-89
2023/01/21 14:10:56;;;;;;;4.27;2.40;;;1.10;99.90;;;;;;10176481;29;20297;-88
2023/01/21 14:16:08;;;;;;;3.10;2.13;;;1.30;99.90;;;;;;10201844;29;20278;-89
2023/01/21 14:21:44;;;;;;;2.87;1.60;;;1.20;99.90;;;;;;10376223;28;20243;-90
2023/01/21 14:26:50;;;;;;;3.13;2.00;;;1.40;99.90;;;;;;10447408;28;20687;-90
2023/01/21 14:32:20;;;;;;;3.67;2.33;;;1.40;99.90;;;;;;10432306;28;20688;-90
2023/01/21 14:37:44;;;;;;;2.30;1.90;;;1.40;99.90;;;;;;10443516;28;20239;-89
2023/01/21 14:42:49;;;;;;;4.87;2.47;;;1.20;99.90;;;;;;10446200;28;20263;-90
2023/01/21 14:47:53;;;;;;;4.03;2.67;;;1.20;99.90;;;;;;10440203;28;20280;-90
2023/01/21 14:52:56;;;;;;;2.67;1.97;;;1.10;99.90;;;;;;10445886;28;20296;-90
2023/01/21 14:58:00;;;;;;;3.63;3.30;;;1.10;99.90;;;;;;10446378;28;20222;-89
2023/01/21 15:03:19;;;;;;;5.00;2.90;;;0.90;99.90;;;;;;10447688;28;20322;-89
2023/01/21 15:08:26;;;;;;;3.00;2.33;;;1.30;99.90;;;;;;10446725;28;20261;-90
2023/01/21 15:13:32;;;;;;;2.40;2.03;;;1.50;99.90;;;;;;10448262;28;20339;-89
2023/01/21 15:18:49;;;;;;;3.83;2.37;;;1.30;99.90;;;;;;10462055;28;20316;-89
2023/01/21 15:24:21;;;;;;;4.17;2.10;;;1.30;99.90;;;;;;10447059;28;20691;-89
2023/01/21 15:29:32;;;;;;;3.53;3.23;;;1.70;99.90;;;;;;10455592;28;20222;-89
2023/01/21 15:34:35;;;;;;;5.00;4.43;;;1.10;99.90;;;;;;10449788;28;20250;-90
2023/01/21 15:39:38;;;;;;;6.33;5.60;;;0.70;99.90;;;;;;10455466;28;20225;-90
2023/01/21 15:45:00;;;;;;;5.63;5.07;;;0.50;99.90;;;;;;10452327;28;20235;-90
2023/01/21 15:50:48;;;;;;;7.23;6.00;;;0.50;99.90;;;;;;10456425;28;20226;-87
2023/01/21 15:56:24;;;;;;;6.17;5.00;;;0.40;99.90;;;;;;10415826;28;20263;-88
2023/01/21 16:01:29;;;;;;;3.77;3.47;;;2.20;99.90;;;;;;10412135;28;20242;-88
2023/01/21 16:06:58;;;;;;;3.20;2.60;;;1.70;99.90;;;;;;10437755;28;20219;-88
2023/01/21 16:12:38;;;;;;;5.77;3.90;;;1.40;99.90;;;;;;10421194;28;20254;-88
2023/01/21 16:17:55;;;;;;;9.57;5.40;;;1.20;99.90;;;;;;10447795;28;20262;-90
2023/01/21 16:23:01;;;;;;;5.30;3.37;;;1.30;99.90;;;;;;10466234;28;20597;-78
2023/01/21 16:28:03;;;;;;;8.10;3.90;;;2.40;99.90;;;;;;10462064;28;20287;-78
2023/01/21 16:33:14;;;;;;;8.57;4.63;;;2.00;99.90;;;;;;10443421;28;20308;-78
2023/01/21 16:38:20;;;;;;;29.13;9.40;;;2.00;99.90;;;;;;10452175;28;20243;-77
2023/01/21 16:43:26;;;;;;;8.93;4.03;;;1.80;99.90;;;;;;10453284;28;20238;-77
2023/01/21 16:48:31;;;;;;;6.57;3.90;;;2.00;99.90;;;;;;10473072;28;20230;-77
2023/01/21 16:53:34;;;;;;;15.77;6.20;;;2.20;99.90;;;;;;10448782;28;20276;-77
2023/01/21 16:58:45;;;;;;;18.00;8.63;;;2.00;99.90;;;;;;10454149;28;20289;-77
2023/01/21 17:03:48;;;;;;;13.73;6.63;;;2.70;99.90;;;;;;10458211;28;20243;-77
2023/01/21 17:09:06;;;;;;;9.80;4.90;;;3.10;99.90;;;;;;10451055;28;20253;-77
2023/01/21 17:14:09;;;;;;;13.67;8.17;;;2.70;99.90;;;;;;10449821;28;20319;-77
2023/01/21 17:19:24;;;;;;;11.27;7.43;;;1.90;99.90;;;;;;10433484;28;20231;-77
2023/01/21 17:24:42;;;;;;;15.17;7.40;;;1.10;99.90;;;;;;10470726;28;20710;-77
2023/01/21 17:29:45;;;;;;;11.63;6.43;;;1.10;99.90;;;;;;10437042;28;20296;-78
2023/01/21 17:35:11;;;;;;;16.80;8.27;;;1.50;99.90;;;;;;10458108;28;20372;-77
2023/01/21 17:40:22;;;;;;;23.77;10.90;;;1.90;99.90;;;;;;10450717;28;20617;-77
2023/01/21 17:45:30;;;;;;;22.13;12.57;;;2.40;99.90;;;;;;10449265;28;20245;-77
2023/01/21 17:50:32;;;;;;;15.37;9.23;;;1.00;99.90;;;;;;10449688;28;20750;-77
2023/01/21 17:55:37;;;;;;;8.33;6.47;;;1.40;99.90;;;;;;10446854;28;20273;-77
2023/01/21 18:00:42;;;;;;;7.97;4.57;;;1.40;99.90;;;;;;10489252;28;20225;-76
2023/01/21 18:05:45;;;;;;;12.93;7.20;;;1.00;99.90;;;;;;10446153;28;20234;-77
2023/01/21 18:10:49;;;;;;;7.63;4.30;;;1.40;99.90;;;;;;10455549;28;20265;-77
2023/01/21 18:15:52;;;;;;;9.10;6.70;;;1.70;99.90;;;;;;10433151;28;20631;-77
2023/01/21 18:20:55;;;;;;;6.57;5.20;;;1.70;99.90;;;;;;10450854;28;20234;-77
2023/01/21 18:25:58;;;;;;;6.43;4.23;;;1.40;99.90;;;;;;10456841;28;20696;-77
2023/01/21 18:31:01;;;;;;;7.80;5.60;;;1.40;99.90;;;;;;10461694;28;20234;-77
2023/01/21 18:36:05;;;;;;;6.03;5.10;;;1.40;99.90;;;;;;10447628;28;20692;-78
2023/01/21 18:41:10;;;;;;;6.10;5.00;;;1.30;99.90;;;;;;10443719;28;20238;-77
2023/01/21 18:46:15;;;;;;;9.27;5.63;;;1.30;99.90;;;;;;10481146;28;20233;-77
2023/01/21 18:51:18;;;;;;;6.53;4.60;;;1.30;99.90;;;;;;10482010;28;20659;-78
2023/01/21 18:56:21;;;;;;;6.13;3.97;;;1.10;99.90;;;;;;10445599;28;20250;-77
2023/01/21 19:01:24;;;;;;;5.83;4.47;;;1.30;99.90;;;;;;10447054;28;20269;-77
2023/01/21 19:06:27;;;;;;;6.10;4.83;;;1.50;99.90;;;;;;10466340;28;20230;-77
2023/01/21 19:11:30;;;;;;;8.53;5.50;;;2.20;99.90;;;;;;10454532;28;20276;-78
2023/01/21 19:16:33;;;;;;;44.17;6.90;;;2.70;99.90;;;;;;10456182;28;20262;-78
2023/01/21 19:21:37;;;;;;;5.30;4.30;;;4.10;99.90;;;;;;10454982;28;20324;-78
2023/01/21 19:26:40;;;;;;;11.63;3.97;;;3.30;99.90;;;;;;10455342;28;20230;-77
2023/01/21 19:31:43;;;;;;;36.97;7.23;;;3.90;99.90;;;;;;10453757;28;20307;-78
2023/01/21 19:36:47;;;;;;;8.37;6.47;;;4.40;99.90;;;;;;10454434;28;20316;-77
2023/01/21 19:41:50;;;;;;;8.37;5.47;;;3.80;99.90;;;;;;10103990;28;10000328;-78
2023/01/21 19:47:18;;;;;;;7.13;5.40;;;3.50;99.90;;;;;;10450457;28;20226;-78
2023/01/21 19:52:21;;;;;;;6.70;4.77;;;2.80;99.90;;;;;;10464962;28;20250;-77
2023/01/21 19:57:24;;;;;;;8.23;5.73;;;3.00;99.90;;;;;;10492476;28;20307;-78
2023/01/21 20:02:28;;;;;;;6.20;5.27;;;2.50;99.90;;;;;;10481602;28;20608;-77
2023/01/21 20:07:31;;;;;;;7.53;4.73;;;2.90;99.90;;;;;;10446969;28;20284;-77
2023/01/21 20:12:34;;;;;;;4.70;3.97;;;2.20;99.90;;;;;;10450358;28;20227;-77
2023/01/21 20:17:45;;;;;;;29.37;6.33;;;1.80;99.90;;;;;;10449898;28;20773;-77
2023/01/21 20:22:48;;;;;;;5.80;4.20;;;3.30;99.90;;;;;;10450244;28;20655;-77
2023/01/21 20:27:58;;;;;;;5.53;4.73;;;2.80;99.90;;;;;;10449553;28;20257;-77
2023/01/21 20:33:01;;;;;;;15.73;6.40;;;1.90;99.90;;;;;;10449768;28;20258;-77
2023/01/21 20:38:10;;;;;;;6.10;4.47;;;2.40;99.90;;;;;;10447007;28;20231;-78
2023/01/21 20:43:13;;;;;;;4.50;3.87;;;2.30;99.90;;;;;;10454304;28;20683;-77
2023/01/21 20:48:27;;;;;;;5.97;4.30;;;2.10;99.90;;;;;;10433587;28;20679;-78
2023/01/21 20:53:30;;;;;;;5.67;4.50;;;2.90;99.90;;;;;;10448395;28;20250;-78
2023/01/21 20:58:33;;;;;;;5.47;4.60;;;2.10;99.90;;;;;;10448249;28;20226;-78
2023/01/21 21:03:37;;;;;;;6.77;4.70;;;2.30;99.90;;;;;;10463433;28;20230;-77
2023/01/21 21:08:40;;;;;;;4.77;4.27;;;1.90;99.90;;;;;;10448640;28;20952;-78
2023/01/21 21:13:47;;;;;;;25.53;6.03;;;1.80;99.90;;;;;;10445388;28;20300;-78
2023/01/21 21:18:50;;;;;;;7.73;4.87;;;2.70;99.90;;;;;;10447638;28;20234;-78
2023/01/21 21:23:54;;;;;;;6.50;5.17;;;2.40;99.90;;;;;;10423489;28;20260;-78
2023/01/21 21:28:59;;;;;;;5.20;3.47;;;3.00;99.90;;;;;;10461918;28;20986;-78
2023/01/21 21:34:03;;;;;;;5.50;4.70;;;3.00;99.90;;;;;;10486696;28;20656;-78
2023/01/21 21:39:06;;;;;;;6.10;4.97;;;2.90;99.90;;;;;;10451028;28;20234;-78
2023/01/21 21:44:10;;;;;;;4.40;3.73;;;2.70;99.90;;;;;;10445053;28;20242;-78
2023/01/21 21:49:14;;;;;;;9.33;6.00;;;3.20;99.90;;;;;;10442768;28;20627;-78
2023/01/21 21:54:17;;;;;;;7.23;4.93;;;4.20;99.90;;;;;;10422460;28;20784;-78
2023/01/21 21:59:20;;;;;;;6.80;4.83;;;3.90;99.90;;;;;;10449149;28;20288;-78
2023/01/21 22:04:23;;;;;;;7.30;4.27;;;3.00;99.90;;;;;;10445185;28;20648;-78
2023/01/21 22:09:27;;;;;;;5.47;4.87;;;2.60;99.90;;;;;;10446726;28;20276;-78
2023/01/21 22:14:30;;;;;;;5.67;4.87;;;2.80;99.90;;;;;;10445033;28;20292;-77
2023/01/21 22:19:33;;;;;;;6.13;5.30;;;2.60;99.90;;;;;;10442097;28;20660;-78
2023/01/21 22:24:39;;;;;;;9.63;5.53;;;2.30;99.90;;;;;;10433507;28;20226;-78
2023/01/21 22:29:42;;;;;;;5.40;3.70;;;2.40;99.90;;;;;;10446586;28;20242;-78
2023/01/21 22:34:44;;;;;;;9.93;5.97;;;2.00;99.90;;;;;;10422532;28;20303;-78
2023/01/21 22:39:47;;;;;;;7.60;3.97;;;2.50;99.90;;;;;;10441036;28;20625;-78
2023/01/21 22:44:50;;;;;;;13.77;4.57;;;2.40;99.90;;;;;;10450666;28;20230;-78
2023/01/21 22:49:52;;;;;;;10.97;5.10;;;3.10;99.90;;;;;;10434833;28;20292;-77
2023/01/21 22:54:55;;;;;;;4.77;3.17;;;3.20;99.90;;;;;;10443204;28;20254;-77
2023/01/21 22:59:57;;;;;;;4.33;3.07;;;4.00;99.90;;;;;;10453833;28;20230;-78
2023/01/21 23:05:03;;;;;;;4.77;3.63;;;3.70;99.90;;;;;;10437348;28;20639;-78
2023/01/21 23:10:06;;;;;;;5.97;4.17;;;3.80;99.90;;;;;;10449704;28;20227;-78
2023/01/21 23:15:09;;;;;;;7.20;5.30;;;4.10;99.90;;;;;;10457092;28;20259;-78
2023/01/21 23:20:12;;;;;;;8.07;5.63;;;3.70;99.90;;;;;;10456700;28;20235;-78
2023/01/21 23:25:14;;;;;;;8.97;6.07;;;3.60;99.90;;;;;;10453424;28;20757;-78
2023/01/21 23:30:17;;;;;;;6.83;5.33;;;2.80;99.90;;;;;;10436816;28;20234;-78
2023/01/21 23:35:20;;;;;;;7.40;5.97;;;1.90;99.90;;;;;;10461508;28;20320;-78
2023/01/21 23:40:23;;;;;;;8.13;5.87;;;2.50;99.90;;;;;;10454813;28;21009;-78
2023/01/21 23:45:25;;;;;;;6.20;5.37;;;2.30;99.90;;;;;;10452730;28;20226;-78
2023/01/21 23:50:28;;;;;;;7.43;5.23;;;2.70;99.90;;;;;;10449423;28;20291;-78
2023/01/21 23:55:30;;;;;;;12.43;6.57;;;2.50;99.90;;;;;;10434663;28;20708;-78
